sensor_id;sensor_type;location;lat;lon;timestamp;temperature;humidity
21207;DHT22;10761;48.532;8.026;2023-02-24T00:00:06;8.40;99.90
21207;DHT22;10761;48.532;8.026;2023-02-24T00:02:57;8.50;99.90
21207;DHT22;10761;48.532;8.026;2023-02-24T00:05:23;8.50;99.90
21207;DHT22;10761;48.532;8.026;2023-02-24T00:07:48;8.50;99.90
21207;DHT22;10761;48.532;8.026;2023-02-24T00:10:14;8.50;99.90
21207;DHT22;10761;48.532;8.026;2023-02-24T00:12:44;8.60;99.90
21207;DHT22;10761;48.532;8.026;2023-02-24T00:15:12;8.60;99.90
21207;DHT22;10761;48.532;8.026;2023-02-24T00:17:37;8.50;99.90
21207;DHT22;10761;48.532;8.026;2023-02-24T00:20:03;8.50;99.90
21207;DHT22;10761;48.532;8.026;2023-02-24T00:22:31;8.50;99.90
21207;DHT22;10761;48.532;8.026;2023-02-24T00:24:56;8.50;99.90
21207;DHT22;10761;48.532;8.026;2023-02-24T00:27:25;8.50;99.90
21207;DHT22;10761;48.532;8.026;2023-02-24T00:29:50;8.50;99.90
21207;DHT22;10761;48.532;8.026;2023-02-24T00:32:16;8.50;99.90
21207;DHT22;10761;48.532;8.026;2023-02-24T00:34:41;8.50;99.90
21207;DHT22;10761;48.532;8.026;2023-02-24T00:37:07;8.50;99.90
21207;DHT22;10761;48.532;8.026;2023-02-24T00:39:33;8.50;99.90
21207;DHT22;10761;48.532;8.026;2023-02-24T00:42:00;8.50;99.90
21207;DHT22;10761;48.532;8.026;2023-02-24T00:44:33;8.50;99.90
21207;DHT22;10761;48.532;8.026;2023-02-24T00:46:59;8.40;99.90
21207;DHT22;10761;48.532;8.026;2023-02-24T00:49:26;8.40;99.90
21207;DHT22;10761;48.532;8.026;2023-02-24T00:51:51;8.40;99.90
21207;DHT22;10761;48.532;8.026;2023-02-24T00:54:20;8.40;99.90
21207;DHT22;10761;48.532;8.026;2023-02-24T00:56:46;8.40;99.90
21207;DHT22;10761;48.532;8.026;2023-02-24T00:59:13;8.30;99.90
21207;DHT22;10761;48.532;8.026;2023-02-24T01:01:38;8.40;99.90
21207;DHT22;10761;48.532;8.026;2023-02-24T01:04:04;8.40;99.90
21207;DHT22;10761;48.532;8.026;2023-02-24T01:06:35;8.40;99.90
21207;DHT22;10761;48.532;8.026;2023-02-24T01:09:01;8.40;99.90
21207;DHT22;10761;48.532;8.026;2023-02-24T01:11:27;8.30;99.90
21207;DHT22;10761;48.532;8.026;2023-02-24T01:14:15;8.30;99.90
21207;DHT22;10761;48.532;8.026;2023-02-24T01:16:41;8.30;99.90
21207;DHT22;10761;48.532;8.026;2023-02-24T01:19:09;8.30;99.90
21207;DHT22;10761;48.532;8.026;2023-02-24T01:21:35;8.30;99.90
21207;DHT22;10761;48.532;8.026;2023-02-24T01:24:00;8.30;99.90
21207;DHT22;10761;48.532;8.026;2023-02-24T01:26:26;8.40;99.90
21207;DHT22;10761;48.532;8.026;2023-02-24T01:28:54;8.30;99.90
21207;DHT22;10761;48.532;8.026;2023-02-24T01:31:20;8.40;99.90
21207;DHT22;10761;48.532;8.026;2023-02-24T01:33:47;8.40;99.90
21207;DHT22;10761;48.532;8.026;2023-02-24T01:36:21;8.40;99.90
21207;DHT22;10761;48.532;8.026;2023-02-24T01:38:47;8.40;99.90
21207;DHT22;10761;48.532;8.026;2023-02-24T01:41:21;8.30;99.90
21207;DHT22;10761;48.532;8.026;2023-02-24T01:46:26;8.30;99.90
21207;DHT22;10761;48.532;8.026;2023-02-24T01:48:53;8.20;99.90
21207;DHT22;10761;48.532;8.026;2023-02-24T01:51:19;8.20;99.90
21207;DHT22;10761;48.532;8.026;2023-02-24T01:53:45;8.20;99.90
21207;DHT22;10761;48.532;8.026;2023-02-24T01:56:11;8.20;99.90
21207;DHT22;10761;48.532;8.026;2023-02-24T01:58:38;8.20;99.90
21207;DHT22;10761;48.532;8.026;2023-02-24T02:01:05;8.30;99.90
21207;DHT22;10761;48.532;8.026;2023-02-24T02:03:34;8.40;99.90
21207;DHT22;10761;48.532;8.026;2023-02-24T02:06:02;8.40;99.90
21207;DHT22;10761;48.532;8.026;2023-02-24T02:08:28;8.50;99.90
21207;DHT22;10761;48.532;8.026;2023-02-24T02:10:54;8.50;99.90
21207;DHT22;10761;48.532;8.026;2023-02-24T02:13:24;8.50;99.90
21207;DHT22;10761;48.532;8.026;2023-02-24T02:15:52;8.50;99.90
21207;DHT22;10761;48.532;8.026;2023-02-24T02:18:29;8.40;99.90
21207;DHT22;10761;48.532;8.026;2023-02-24T02:23:34;8.40;99.90
21207;DHT22;10761;48.532;8.026;2023-02-24T02:36:48;8.40;99.90
21207;DHT22;10761;48.532;8.026;2023-02-24T02:42:04;8.50;99.90
21207;DHT22;10761;48.532;8.026;2023-02-24T02:44:37;8.50;99.90
21207;DHT22;10761;48.532;8.026;2023-02-24T02:47:29;8.40;99.90
21207;DHT22;10761;48.532;8.026;2023-02-24T02:50:04;8.30;99.90
21207;DHT22;10761;48.532;8.026;2023-02-24T02:52:37;8.20;99.90
21207;DHT22;10761;48.532;8.026;2023-02-24T02:57:33;8.00;99.90
21207;DHT22;10761;48.532;8.026;2023-02-24T03:00:01;8.00;99.90
21207;DHT22;10761;48.532;8.026;2023-02-24T03:02:34;7.90;99.90
21207;DHT22;10761;48.532;8.026;2023-02-24T03:05:04;7.90;99.90
21207;DHT22;10761;48.532;8.026;2023-02-24T03:07:33;7.90;99.90
21207;DHT22;10761;48.532;8.026;2023-02-24T03:10:03;7.80;99.90
21207;DHT22;10761;48.532;8.026;2023-02-24T03:12:35;7.80;99.90
21207;DHT22;10761;48.532;8.026;2023-02-24T03:15:04;7.80;99.90
21207;DHT22;10761;48.532;8.026;2023-02-24T03:17:33;7.80;99.90
21207;DHT22;10761;48.532;8.026;2023-02-24T03:20:05;7.80;99.90
21207;DHT22;10761;48.532;8.026;2023-02-24T03:22:45;7.80;99.90
21207;DHT22;10761;48.532;8.026;2023-02-24T03:25:11;7.80;99.90
21207;DHT22;10761;48.532;8.026;2023-02-24T03:27:40;7.80;99.90
21207;DHT22;10761;48.532;8.026;2023-02-24T03:30:18;7.80;99.90
21207;DHT22;10761;48.532;8.026;2023-02-24T03:32:55;7.90;99.90
21207;DHT22;10761;48.532;8.026;2023-02-24T03:35:23;7.90;99.90
21207;DHT22;10761;48.532;8.026;2023-02-24T03:37:49;7.90;99.90
21207;DHT22;10761;48.532;8.026;2023-02-24T03:40:17;8.00;99.90
21207;DHT22;10761;48.532;8.026;2023-02-24T03:42:46;7.90;99.90
21207;DHT22;10761;48.532;8.026;2023-02-24T03:45:12;7.90;99.90
21207;DHT22;10761;48.532;8.026;2023-02-24T03:47:38;7.90;99.90
21207;DHT22;10761;48.532;8.026;2023-02-24T03:50:11;8.00;99.90
21207;DHT22;10761;48.532;8.026;2023-02-24T04:00:26;8.10;99.90
21207;DHT22;10761;48.532;8.026;2023-02-24T04:05:38;8.10;99.90
21207;DHT22;10761;48.532;8.026;2023-02-24T04:08:11;8.00;99.90
21207;DHT22;10761;48.532;8.026;2023-02-24T04:10:40;8.10;99.90
21207;DHT22;10761;48.532;8.026;2023-02-24T04:13:22;8.00;99.90
21207;DHT22;10761;48.532;8.026;2023-02-24T04:15:54;8.00;99.90
21207;DHT22;10761;48.532;8.026;2023-02-24T04:18:30;8.00;99.90
21207;DHT22;10761;48.532;8.026;2023-02-24T04:20:57;8.00;99.90
21207;DHT22;10761;48.532;8.026;2023-02-24T04:23:25;8.00;99.90
21207;DHT22;10761;48.532;8.026;2023-02-24T04:25:51;8.00;99.90
21207;DHT22;10761;48.532;8.026;2023-02-24T04:28:17;8.00;99.90
21207;DHT22;10761;48.532;8.026;2023-02-24T04:30:46;8.00;99.90
21207;DHT22;10761;48.532;8.026;2023-02-24T04:33:15;8.00;99.90
21207;DHT22;10761;48.532;8.026;2023-02-24T04:35:43;8.00;99.90
21207;DHT22;10761;48.532;8.026;2023-02-24T04:38:09;7.90;99.90
21207;DHT22;10761;48.532;8.026;2023-02-24T04:40:34;7.90;99.90
21207;DHT22;10761;48.532;8.026;2023-02-24T04:43:01;7.90;99.90
21207;DHT22;10761;48.532;8.026;2023-02-24T04:45:28;7.90;99.90
21207;DHT22;10761;48.532;8.026;2023-02-24T04:47:55;7.90;99.90
21207;DHT22;10761;48.532;8.026;2023-02-24T04:50:26;7.90;99.90
21207;DHT22;10761;48.532;8.026;2023-02-24T04:52:56;7.90;99.90
21207;DHT22;10761;48.532;8.026;2023-02-24T04:55:23;8.00;99.90
21207;DHT22;10761;48.532;8.026;2023-02-24T04:57:51;7.90;99.90
21207;DHT22;10761;48.532;8.026;2023-02-24T05:00:17;7.90;99.90
21207;DHT22;10761;48.532;8.026;2023-02-24T05:02:54;7.90;99.90
21207;DHT22;10761;48.532;8.026;2023-02-24T05:05:20;7.80;99.90
21207;DHT22;10761;48.532;8.026;2023-02-24T05:07:56;7.90;99.90
21207;DHT22;10761;48.532;8.026;2023-02-24T05:10:28;7.90;99.90
21207;DHT22;10761;48.532;8.026;2023-02-24T05:12:54;7.80;99.90
21207;DHT22;10761;48.532;8.026;2023-02-24T05:15:22;7.90;99.90
21207;DHT22;10761;48.532;8.026;2023-02-24T05:18:02;7.80;99.90
21207;DHT22;10761;48.532;8.026;2023-02-24T05:20:34;7.80;99.90
21207;DHT22;10761;48.532;8.026;2023-02-24T05:23:18;7.80;99.90
21207;DHT22;10761;48.532;8.026;2023-02-24T05:25:46;7.80;99.90
21207;DHT22;10761;48.532;8.026;2023-02-24T05:28:11;7.70;99.90
21207;DHT22;10761;48.532;8.026;2023-02-24T05:30:37;7.60;99.90
21207;DHT22;10761;48.532;8.026;2023-02-24T05:33:02;7.50;99.90
21207;DHT22;10761;48.532;8.026;2023-02-24T05:35:28;7.50;99.90
21207;DHT22;10761;48.532;8.026;2023-02-24T05:37:56;7.50;99.90
21207;DHT22;10761;48.532;8.026;2023-02-24T05:40:23;7.40;99.90
21207;DHT22;10761;48.532;8.026;2023-02-24T05:42:49;7.40;99.90
21207;DHT22;10761;48.532;8.026;2023-02-24T05:45:16;7.30;99.90
21207;DHT22;10761;48.532;8.026;2023-02-24T05:47:42;7.30;99.90
21207;DHT22;10761;48.532;8.026;2023-02-24T05:50:11;7.30;99.90
21207;DHT22;10761;48.532;8.026;2023-02-24T05:52:37;7.30;99.90
21207;DHT22;10761;48.532;8.026;2023-02-24T05:55:03;7.30;99.90
21207;DHT22;10761;48.532;8.026;2023-02-24T05:57:31;7.30;99.90
21207;DHT22;10761;48.532;8.026;2023-02-24T05:59:59;7.30;99.90
21207;DHT22;10761;48.532;8.026;2023-02-24T06:02:33;7.30;99.90
21207;DHT22;10761;48.532;8.026;2023-02-24T06:05:02;7.30;99.90
21207;DHT22;10761;48.532;8.026;2023-02-24T06:07:29;7.40;99.90
21207;DHT22;10761;48.532;8.026;2023-02-24T06:09:59;7.40;99.90
21207;DHT22;10761;48.532;8.026;2023-02-24T06:12:26;7.40;99.90
21207;DHT22;10761;48.532;8.026;2023-02-24T06:14:52;7.40;99.90
21207;DHT22;10761;48.532;8.026;2023-02-24T06:17:18;7.30;99.90
21207;DHT22;10761;48.532;8.026;2023-02-24T06:19:44;7.30;99.90
21207;DHT22;10761;48.532;8.026;2023-02-24T06:22:11;7.40;99.90
21207;DHT22;10761;48.532;8.026;2023-02-24T06:24:37;7.50;99.90
21207;DHT22;10761;48.532;8.026;2023-02-24T06:27:03;7.50;99.90
21207;DHT22;10761;48.532;8.026;2023-02-24T06:29:34;7.50;99.90
21207;DHT22;10761;48.532;8.026;2023-02-24T06:32:00;7.50;99.90
21207;DHT22;10761;48.532;8.026;2023-02-24T06:34:33;7.50;99.90
21207;DHT22;10761;48.532;8.026;2023-02-24T06:36:58;7.60;99.90
21207;DHT22;10761;48.532;8.026;2023-02-24T06:39:24;7.60;99.90
21207;DHT22;10761;48.532;8.026;2023-02-24T06:41:50;7.60;99.90
21207;DHT22;10761;48.532;8.026;2023-02-24T06:44:17;7.50;99.90
21207;DHT22;10761;48.532;8.026;2023-02-24T06:46:42;7.50;99.90
21207;DHT22;10761;48.532;8.026;2023-02-24T06:49:08;7.50;99.90
21207;DHT22;10761;48.532;8.026;2023-02-24T06:51:34;7.50;99.90
21207;DHT22;10761;48.532;8.026;2023-02-24T06:53:59;7.60;99.90
21207;DHT22;10761;48.532;8.026;2023-02-24T06:56:27;7.60;99.90
21207;DHT22;10761;48.532;8.026;2023-02-24T06:58:53;7.60;99.90
21207;DHT22;10761;48.532;8.026;2023-02-24T07:01:20;7.60;99.90
21207;DHT22;10761;48.532;8.026;2023-02-24T07:03:50;7.60;99.90
21207;DHT22;10761;48.532;8.026;2023-02-24T07:06:32;7.60;99.90
21207;DHT22;10761;48.532;8.026;2023-02-24T07:08:59;7.60;99.90
21207;DHT22;10761;48.532;8.026;2023-02-24T07:11:26;7.60;99.90
21207;DHT22;10761;48.532;8.026;2023-02-24T07:13:52;7.60;99.90
21207;DHT22;10761;48.532;8.026;2023-02-24T07:16:19;7.60;99.90
21207;DHT22;10761;48.532;8.026;2023-02-24T07:18:52;7.70;99.90
21207;DHT22;10761;48.532;8.026;2023-02-24T07:21:17;7.70;99.90
21207;DHT22;10761;48.532;8.026;2023-02-24T07:23:44;7.70;99.90
21207;DHT22;10761;48.532;8.026;2023-02-24T07:26:14;7.70;99.90
21207;DHT22;10761;48.532;8.026;2023-02-24T07:28:40;7.70;99.90
21207;DHT22;10761;48.532;8.026;2023-02-24T07:31:07;7.70;99.90
21207;DHT22;10761;48.532;8.026;2023-02-24T07:33:33;7.70;99.90
21207;DHT22;10761;48.532;8.026;2023-02-24T07:36:01;7.80;99.90
21207;DHT22;10761;48.532;8.026;2023-02-24T07:38:39;7.80;99.90
21207;DHT22;10761;48.532;8.026;2023-02-24T07:41:05;7.80;99.90
21207;DHT22;10761;48.532;8.026;2023-02-24T07:43:31;7.80;99.90
21207;DHT22;10761;48.532;8.026;2023-02-24T07:46:03;7.90;99.90
21207;DHT22;10761;48.532;8.026;2023-02-24T07:48:29;8.00;99.90
21207;DHT22;10761;48.532;8.026;2023-02-24T07:50:55;8.00;99.90
21207;DHT22;10761;48.532;8.026;2023-02-24T07:53:23;8.10;99.90
21207;DHT22;10761;48.532;8.026;2023-02-24T07:55:51;8.10;99.90
21207;DHT22;10761;48.532;8.026;2023-02-24T07:58:17;8.20;99.90
21207;DHT22;10761;48.532;8.026;2023-02-24T08:00:43;8.20;99.90
21207;DHT22;10761;48.532;8.026;2023-02-24T08:03:25;8.20;99.90
21207;DHT22;10761;48.532;8.026;2023-02-24T08:05:54;8.20;99.90
21207;DHT22;10761;48.532;8.026;2023-02-24T08:08:19;8.20;99.90
21207;DHT22;10761;48.532;8.026;2023-02-24T08:10:45;8.20;99.90
21207;DHT22;10761;48.532;8.026;2023-02-24T08:13:11;8.30;99.90
21207;DHT22;10761;48.532;8.026;2023-02-24T08:15:37;8.30;99.90
21207;DHT22;10761;48.532;8.026;2023-02-24T08:18:02;8.30;99.90
21207;DHT22;10761;48.532;8.026;2023-02-24T08:20:29;8.30;99.90
21207;DHT22;10761;48.532;8.026;2023-02-24T08:23:00;8.30;99.90
21207;DHT22;10761;48.532;8.026;2023-02-24T08:25:26;8.40;99.90
21207;DHT22;10761;48.532;8.026;2023-02-24T08:28:03;8.40;99.90
21207;DHT22;10761;48.532;8.026;2023-02-24T08:30:30;8.50;99.90
21207;DHT22;10761;48.532;8.026;2023-02-24T08:33:04;8.50;99.90
21207;DHT22;10761;48.532;8.026;2023-02-24T08:35:30;8.60;99.90
21207;DHT22;10761;48.532;8.026;2023-02-24T08:38:01;8.60;99.90
21207;DHT22;10761;48.532;8.026;2023-02-24T08:40:29;8.60;99.90
21207;DHT22;10761;48.532;8.026;2023-02-24T08:42:56;8.40;99.90
21207;DHT22;10761;48.532;8.026;2023-02-24T08:45:23;8.30;99.90
21207;DHT22;10761;48.532;8.026;2023-02-24T08:47:50;8.30;99.90
21207;DHT22;10761;48.532;8.026;2023-02-24T08:50:18;8.40;99.90
21207;DHT22;10761;48.532;8.026;2023-02-24T08:52:45;8.40;99.90
21207;DHT22;10761;48.532;8.026;2023-02-24T08:55:11;8.40;99.90
21207;DHT22;10761;48.532;8.026;2023-02-24T08:57:36;8.50;99.90
21207;DHT22;10761;48.532;8.026;2023-02-24T09:00:02;8.50;99.90
21207;DHT22;10761;48.532;8.026;2023-02-24T09:02:31;8.60;99.90
21207;DHT22;10761;48.532;8.026;2023-02-24T09:05:03;8.50;99.90
21207;DHT22;10761;48.532;8.026;2023-02-24T09:07:34;8.50;99.90
21207;DHT22;10761;48.532;8.026;2023-02-24T09:10:01;8.50;99.90
21207;DHT22;10761;48.532;8.026;2023-02-24T09:12:27;8.50;99.90
21207;DHT22;10761;48.532;8.026;2023-02-24T09:14:57;8.50;99.90
21207;DHT22;10761;48.532;8.026;2023-02-24T09:17:26;8.50;99.90
21207;DHT22;10761;48.532;8.026;2023-02-24T09:20:14;8.50;99.90
21207;DHT22;10761;48.532;8.026;2023-02-24T09:23:00;8.50;99.90
21207;DHT22;10761;48.532;8.026;2023-02-24T09:25:32;8.50;99.90
21207;DHT22;10761;48.532;8.026;2023-02-24T09:28:14;8.60;99.90
21207;DHT22;10761;48.532;8.026;2023-02-24T09:31:03;8.70;99.90
21207;DHT22;10761;48.532;8.026;2023-02-24T09:33:33;8.90;99.90
21207;DHT22;10761;48.532;8.026;2023-02-24T09:36:19;8.90;99.90
21207;DHT22;10761;48.532;8.026;2023-02-24T09:38:46;9.00;99.90
21207;DHT22;10761;48.532;8.026;2023-02-24T09:44:21;8.90;99.90
21207;DHT22;10761;48.532;8.026;2023-02-24T09:49:48;8.70;99.90
21207;DHT22;10761;48.532;8.026;2023-02-24T09:52:15;8.60;99.90
21207;DHT22;10761;48.532;8.026;2023-02-24T09:54:46;8.50;99.90
21207;DHT22;10761;48.532;8.026;2023-02-24T09:57:40;8.50;99.90
21207;DHT22;10761;48.532;8.026;2023-02-24T10:00:26;8.40;99.90
21207;DHT22;10761;48.532;8.026;2023-02-24T10:05:54;8.30;99.90
21207;DHT22;10761;48.532;8.026;2023-02-24T10:08:26;8.20;99.90
21207;DHT22;10761;48.532;8.026;2023-02-24T10:10:55;8.20;99.90
21207;DHT22;10761;48.532;8.026;2023-02-24T10:13:52;8.20;99.90
21207;DHT22;10761;48.532;8.026;2023-02-24T10:16:19;8.10;99.90
21207;DHT22;10761;48.532;8.026;2023-02-24T10:18:52;8.10;99.90
21207;DHT22;10761;48.532;8.026;2023-02-24T10:21:57;8.10;99.90
21207;DHT22;10761;48.532;8.026;2023-02-24T10:24:28;8.10;99.90
21207;DHT22;10761;48.532;8.026;2023-02-24T10:29:30;8.20;99.90
21207;DHT22;10761;48.532;8.026;2023-02-24T10:32:03;8.30;99.90
21207;DHT22;10761;48.532;8.026;2023-02-24T10:34:31;8.30;99.90
21207;DHT22;10761;48.532;8.026;2023-02-24T10:36:58;8.30;99.90
21207;DHT22;10761;48.532;8.026;2023-02-24T10:39:25;8.30;99.90
21207;DHT22;10761;48.532;8.026;2023-02-24T10:41:52;8.40;99.90
21207;DHT22;10761;48.532;8.026;2023-02-24T10:44:43;8.40;99.90
21207;DHT22;10761;48.532;8.026;2023-02-24T10:47:19;8.50;99.90
21207;DHT22;10761;48.532;8.026;2023-02-24T10:50:04;8.50;99.90
21207;DHT22;10761;48.532;8.026;2023-02-24T10:52:38;8.50;99.90
21207;DHT22;10761;48.532;8.026;2023-02-24T10:58:03;8.60;99.90
21207;DHT22;10761;48.532;8.026;2023-02-24T11:00:44;8.70;99.90
21207;DHT22;10761;48.532;8.026;2023-02-24T11:03:28;8.70;99.90
21207;DHT22;10761;48.532;8.026;2023-02-24T11:09:22;8.80;99.90
21207;DHT22;10761;48.532;8.026;2023-02-24T11:12:11;8.90;99.90
21207;DHT22;10761;48.532;8.026;2023-02-24T11:14:58;8.90;99.90
21207;DHT22;10761;48.532;8.026;2023-02-24T11:17:53;9.10;99.90
21207;DHT22;10761;48.532;8.026;2023-02-24T11:20:33;9.10;99.90
21207;DHT22;10761;48.532;8.026;2023-02-24T11:23:04;9.20;99.90
21207;DHT22;10761;48.532;8.026;2023-02-24T11:25:35;9.20;99.90
21207;DHT22;10761;48.532;8.026;2023-02-24T11:28:04;9.20;99.90
21207;DHT22;10761;48.532;8.026;2023-02-24T11:30:38;9.20;99.90
21207;DHT22;10761;48.532;8.026;2023-02-24T11:36:05;9.30;99.90
21207;DHT22;10761;48.532;8.026;2023-02-24T11:38:38;9.40;99.90
21207;DHT22;10761;48.532;8.026;2023-02-24T11:43:39;9.50;99.90
21207;DHT22;10761;48.532;8.026;2023-02-24T11:46:11;9.20;99.90
21207;DHT22;10761;48.532;8.026;2023-02-24T11:48:42;9.10;99.90
21207;DHT22;10761;48.532;8.026;2023-02-24T11:51:11;9.10;99.90
21207;DHT22;10761;48.532;8.026;2023-02-24T11:56:33;9.10;99.90
21207;DHT22;10761;48.532;8.026;2023-02-24T12:01:38;9.10;99.90
21207;DHT22;10761;48.532;8.026;2023-02-24T12:04:25;9.20;99.90
21207;DHT22;10761;48.532;8.026;2023-02-24T12:09:22;9.40;99.90
21207;DHT22;10761;48.532;8.026;2023-02-24T12:14:32;9.80;99.90
21207;DHT22;10761;48.532;8.026;2023-02-24T12:17:01;10.00;99.90
21207;DHT22;10761;48.532;8.026;2023-02-24T12:19:30;10.20;99.90
21207;DHT22;10761;48.532;8.026;2023-02-24T12:22:12;10.30;99.90
21207;DHT22;10761;48.532;8.026;2023-02-24T12:24:39;10.20;99.90
21207;DHT22;10761;48.532;8.026;2023-02-24T12:30:03;10.10;99.90
21207;DHT22;10761;48.532;8.026;2023-02-24T12:32:44;10.20;99.90
21207;DHT22;10761;48.532;8.026;2023-02-24T12:50:44;10.50;99.90
21207;DHT22;10761;48.532;8.026;2023-02-24T12:53:16;10.40;99.90
21207;DHT22;10761;48.532;8.026;2023-02-24T12:55:48;10.40;99.90
21207;DHT22;10761;48.532;8.026;2023-02-24T12:58:22;10.40;99.90
21207;DHT22;10761;48.532;8.026;2023-02-24T13:01:06;10.40;99.90
21207;DHT22;10761;48.532;8.026;2023-02-24T13:12:05;9.90;99.90
21207;DHT22;10761;48.532;8.026;2023-02-24T13:14:13;9.70;99.90
21207;DHT22;10761;48.532;8.026;2023-02-24T13:16:44;9.70;99.90
21207;DHT22;10761;48.532;8.026;2023-02-24T13:21:58;9.70;99.90
21207;DHT22;10761;48.532;8.026;2023-02-24T13:24:25;9.70;99.90
21207;DHT22;10761;48.532;8.026;2023-02-24T13:26:51;9.70;99.90
21207;DHT22;10761;48.532;8.026;2023-02-24T13:29:27;9.70;99.90
21207;DHT22;10761;48.532;8.026;2023-02-24T13:31:53;9.60;99.90
21207;DHT22;10761;48.532;8.026;2023-02-24T13:34:40;9.70;99.90
21207;DHT22;10761;48.532;8.026;2023-02-24T13:37:06;9.60;99.90
21207;DHT22;10761;48.532;8.026;2023-02-24T13:39:34;9.70;99.90
21207;DHT22;10761;48.532;8.026;2023-02-24T13:42:00;9.80;99.90
21207;DHT22;10761;48.532;8.026;2023-02-24T13:44:28;9.90;99.90
21207;DHT22;10761;48.532;8.026;2023-02-24T13:46:58;9.90;99.90
21207;DHT22;10761;48.532;8.026;2023-02-24T13:49:31;9.80;99.90
21207;DHT22;10761;48.532;8.026;2023-02-24T13:52:22;9.80;99.90
21207;DHT22;10761;48.532;8.026;2023-02-24T13:57:40;9.70;99.90
21207;DHT22;10761;48.532;8.026;2023-02-24T14:02:53;9.70;99.90
21207;DHT22;10761;48.532;8.026;2023-02-24T14:05:24;9.60;99.90
21207;DHT22;10761;48.532;8.026;2023-02-24T14:07:50;9.70;99.90
21207;DHT22;10761;48.532;8.026;2023-02-24T14:10:18;9.70;99.90
21207;DHT22;10761;48.532;8.026;2023-02-24T14:12:45;9.70;99.90
21207;DHT22;10761;48.532;8.026;2023-02-24T14:15:12;9.70;99.90
21207;DHT22;10761;48.532;8.026;2023-02-24T14:17:39;9.60;99.90
21207;DHT22;10761;48.532;8.026;2023-02-24T14:20:20;9.60;99.90
21207;DHT22;10761;48.532;8.026;2023-02-24T14:22:56;9.60;99.90
21207;DHT22;10761;48.532;8.026;2023-02-24T14:25:23;9.60;99.90
21207;DHT22;10761;48.532;8.026;2023-02-24T14:27:50;9.60;99.90
21207;DHT22;10761;48.532;8.026;2023-02-24T14:30:27;9.70;99.90
21207;DHT22;10761;48.532;8.026;2023-02-24T14:32:55;9.60;99.90
21207;DHT22;10761;48.532;8.026;2023-02-24T14:35:30;9.70;99.90
21207;DHT22;10761;48.532;8.026;2023-02-24T14:37:57;9.70;99.90
21207;DHT22;10761;48.532;8.026;2023-02-24T14:40:22;9.70;99.90
21207;DHT22;10761;48.532;8.026;2023-02-24T14:42:50;9.70;99.90
21207;DHT22;10761;48.532;8.026;2023-02-24T14:45:17;9.70;99.90
21207;DHT22;10761;48.532;8.026;2023-02-24T14:47:43;9.70;99.90
21207;DHT22;10761;48.532;8.026;2023-02-24T14:50:16;9.70;99.90
21207;DHT22;10761;48.532;8.026;2023-02-24T14:52:44;9.80;99.90
21207;DHT22;10761;48.532;8.026;2023-02-24T14:55:20;9.80;99.90
21207;DHT22;10761;48.532;8.026;2023-02-24T15:00:24;9.90;99.90
21207;DHT22;10761;48.532;8.026;2023-02-24T15:02:56;10.00;99.90
21207;DHT22;10761;48.532;8.026;2023-02-24T15:05:22;10.00;99.90
21207;DHT22;10761;48.532;8.026;2023-02-24T15:07:47;10.00;99.90
21207;DHT22;10761;48.532;8.026;2023-02-24T15:10:17;9.90;99.90
21207;DHT22;10761;48.532;8.026;2023-02-24T15:12:46;9.90;99.90
21207;DHT22;10761;48.532;8.026;2023-02-24T15:15:17;9.90;99.90
21207;DHT22;10761;48.532;8.026;2023-02-24T15:17:43;9.80;99.90
21207;DHT22;10761;48.532;8.026;2023-02-24T15:22:53;9.90;99.90
21207;DHT22;10761;48.532;8.026;2023-02-24T15:25:26;9.90;99.90
21207;DHT22;10761;48.532;8.026;2023-02-24T15:30:37;9.90;99.90
21207;DHT22;10761;48.532;8.026;2023-02-24T15:33:20;10.00;99.90
21207;DHT22;10761;48.532;8.026;2023-02-24T15:35:51;9.90;99.90
21207;DHT22;10761;48.532;8.026;2023-02-24T15:38:34;9.90;99.90
21207;DHT22;10761;48.532;8.026;2023-02-24T15:41:01;9.80;99.90
21207;DHT22;10761;48.532;8.026;2023-02-24T15:45:56;9.70;99.90
21207;DHT22;10761;48.532;8.026;2023-02-24T15:48:22;9.70;99.90
21207;DHT22;10761;48.532;8.026;2023-02-24T15:50:49;9.60;99.90
21207;DHT22;10761;48.532;8.026;2023-02-24T15:53:14;9.50;99.90
21207;DHT22;10761;48.532;8.026;2023-02-24T15:55:40;9.50;99.90
21207;DHT22;10761;48.532;8.026;2023-02-24T15:58:11;9.40;99.90
21207;DHT22;10761;48.532;8.026;2023-02-24T16:00:37;9.50;99.90
21207;DHT22;10761;48.532;8.026;2023-02-24T16:03:03;9.40;99.90
21207;DHT22;10761;48.532;8.026;2023-02-24T16:05:28;9.40;99.90
21207;DHT22;10761;48.532;8.026;2023-02-24T16:07:54;9.30;99.90
21207;DHT22;10761;48.532;8.026;2023-02-24T16:10:23;9.30;99.90
21207;DHT22;10761;48.532;8.026;2023-02-24T16:12:53;9.30;99.90
21207;DHT22;10761;48.532;8.026;2023-02-24T16:15:40;9.20;99.90
21207;DHT22;10761;48.532;8.026;2023-02-24T16:18:09;9.20;99.90
21207;DHT22;10761;48.532;8.026;2023-02-24T16:20:43;9.20;99.90
21207;DHT22;10761;48.532;8.026;2023-02-24T16:23:09;9.20;99.90
21207;DHT22;10761;48.532;8.026;2023-02-24T16:25:40;9.20;99.90
21207;DHT22;10761;48.532;8.026;2023-02-24T16:28:05;9.20;99.90
21207;DHT22;10761;48.532;8.026;2023-02-24T16:30:32;9.20;99.90
21207;DHT22;10761;48.532;8.026;2023-02-24T16:32:59;9.20;99.90
21207;DHT22;10761;48.532;8.026;2023-02-24T16:35:25;9.20;99.90
21207;DHT22;10761;48.532;8.026;2023-02-24T16:37:51;9.20;99.90
21207;DHT22;10761;48.532;8.026;2023-02-24T16:40:24;9.10;99.90
21207;DHT22;10761;48.532;8.026;2023-02-24T16:42:50;9.10;99.90
21207;DHT22;10761;48.532;8.026;2023-02-24T16:45:16;9.10;99.90
21207;DHT22;10761;48.532;8.026;2023-02-24T16:47:41;9.10;99.90
21207;DHT22;10761;48.532;8.026;2023-02-24T16:50:09;9.20;99.90
21207;DHT22;10761;48.532;8.026;2023-02-24T16:52:41;9.20;99.90
21207;DHT22;10761;48.532;8.026;2023-02-24T16:55:09;9.20;99.90
21207;DHT22;10761;48.532;8.026;2023-02-24T16:57:34;9.20;99.90
21207;DHT22;10761;48.532;8.026;2023-02-24T17:00:00;9.30;99.90
21207;DHT22;10761;48.532;8.026;2023-02-24T17:02:25;9.20;99.90
21207;DHT22;10761;48.532;8.026;2023-02-24T17:04:51;9.20;99.90
21207;DHT22;10761;48.532;8.026;2023-02-24T17:07:16;9.60;99.90
21207;DHT22;10761;48.532;8.026;2023-02-24T17:09:45;9.20;99.90
21207;DHT22;10761;48.532;8.026;2023-02-24T17:12:11;9.20;99.90
21207;DHT22;10761;48.532;8.026;2023-02-24T17:14:37;9.10;99.90
21207;DHT22;10761;48.532;8.026;2023-02-24T17:17:02;9.00;99.90
21207;DHT22;10761;48.532;8.026;2023-02-24T17:19:28;9.00;99.90
21207;DHT22;10761;48.532;8.026;2023-02-24T17:21:53;9.00;99.90
21207;DHT22;10761;48.532;8.026;2023-02-24T17:24:19;9.00;99.90
21207;DHT22;10761;48.532;8.026;2023-02-24T17:26:44;9.00;99.90
21207;DHT22;10761;48.532;8.026;2023-02-24T17:29:10;9.00;99.90
21207;DHT22;10761;48.532;8.026;2023-02-24T17:31:37;9.00;99.90
21207;DHT22;10761;48.532;8.026;2023-02-24T17:34:02;9.00;99.90
21207;DHT22;10761;48.532;8.026;2023-02-24T17:36:28;8.90;99.90
21207;DHT22;10761;48.532;8.026;2023-02-24T17:38:53;8.90;99.90
21207;DHT22;10761;48.532;8.026;2023-02-24T17:41:21;8.90;99.90
21207;DHT22;10761;48.532;8.026;2023-02-24T17:43:48;8.90;99.90
21207;DHT22;10761;48.532;8.026;2023-02-24T17:46:14;8.90;99.90
21207;DHT22;10761;48.532;8.026;2023-02-24T17:48:39;8.80;99.90
21207;DHT22;10761;48.532;8.026;2023-02-24T17:51:05;8.80;99.90